Time;durP1;ratioP1;P1;durP2;ratioP2;P2;SDS_P1;SDS_P2;PMS_P1;PMS_P2;Temp;Humidity;BMP_temperature;BMP_pressure;BME280_temperature;BME280_humidity;BME280_pressure;Samples;Min_cycle;Max_cycle;Signal;HPM_P1;HPM_P2
2022/12/31 00:02:03;;;;;;;7.15;1.95;;;11.90;99.90;;;;;;6214216;23;20020;-89
2022/12/31 00:04:29;;;;;;;9.27;1.83;;;11.80;99.90;;;;;;6216184;23;20036;-87
2022/12/31 00:06:54;;;;;;;6.05;1.90;;;11.90;99.90;;;;;;6215196;23;20028;-88
2022/12/31 00:09:20;;;;;;;9.30;1.92;;;11.80;99.90;;;;;;6216203;23;20016;-88
2022/12/31 00:11:45;;;;;;;4.30;1.75;;;11.90;99.90;;;;;;6214191;23;20016;-88
2022/12/31 00:14:11;;;;;;;7.63;2.08;;;11.90;99.90;;;;;;6213103;23;20443;-88
2022/12/31 00:16:39;;;;;;;7.53;1.95;;;11.90;99.90;;;;;;6214615;23;20095;-88
2022/12/31 00:19:07;;;;;;;6.38;1.80;;;11.90;99.90;;;;;;6214660;23;20016;-88
2022/12/31 00:21:33;;;;;;;7.53;1.80;;;11.90;99.90;;;;;;6215371;23;20040;-88
2022/12/31 00:23:59;;;;;;;6.60;1.70;;;11.90;99.90;;;;;;6216375;23;20017;-88
2022/12/31 00:26:27;;;;;;;5.95;1.90;;;11.90;99.90;;;;;;6214248;23;20013;-88
2022/12/31 00:28:54;;;;;;;4.65;1.73;;;12.00;99.90;;;;;;6213778;23;20329;-88
2022/12/31 00:31:25;;;;;;;6.70;2.00;;;11.90;99.90;;;;;;6215880;23;20025;-87
2022/12/31 00:33:51;;;;;;;5.97;2.20;;;11.90;99.90;;;;;;6214856;23;20449;-88
2022/12/31 00:36:23;;;;;;;5.20;1.95;;;11.90;99.90;;;;;;6214538;23;20024;-88
2022/12/31 00:38:50;;;;;;;4.95;1.95;;;11.90;99.90;;;;;;6216275;23;20091;-88
2022/12/31 00:41:16;;;;;;;6.28;2.47;;;11.90;99.90;;;;;;6214483;23;20013;-88
2022/12/31 00:43:43;;;;;;;7.63;2.92;;;11.90;99.90;;;;;;6214922;23;20107;-87
2022/12/31 00:46:10;;;;;;;7.50;2.55;;;11.90;99.90;;;;;;6215397;23;20437;-88
2022/12/31 00:48:37;;;;;;;6.60;2.80;;;11.90;99.90;;;;;;6213979;23;20056;-88
2022/12/31 00:51:05;;;;;;;6.53;2.85;;;11.90;99.90;;;;;;6216323;23;20100;-88
2022/12/31 00:53:31;;;;;;;6.90;3.10;;;11.90;99.90;;;;;;6213861;23;20017;-88
2022/12/31 00:56:10;;;;;;;8.68;3.80;;;11.90;99.90;;;;;;6213134;23;20012;-88
2022/12/31 00:58:36;;;;;;;8.82;3.63;;;11.90;99.90;;;;;;6214064;23;20016;-88
2022/12/31 01:01:10;;;;;;;7.80;3.47;;;11.90;99.90;;;;;;6215679;23;20016;-88
2022/12/31 01:03:36;;;;;;;7.45;3.63;;;11.90;99.90;;;;;;6213281;23;20024;-88
2022/12/31 01:06:01;;;;;;;8.20;3.63;;;11.90;99.90;;;;;;6215681;23;20091;-88
2022/12/31 01:08:27;;;;;;;10.00;3.85;;;11.90;99.90;;;;;;6215576;23;20096;-88
2022/12/31 01:13:36;;;;;;;9.77;3.97;;;11.90;99.90;;;;;;6214109;23;20075;-87
2022/12/31 01:16:11;;;;;;;9.57;3.88;;;11.90;99.90;;;;;;6213293;23;20021;-88
2022/12/31 01:18:37;;;;;;;9.90;3.70;;;11.90;99.90;;;;;;6215955;23;20514;-88
2022/12/31 01:21:05;;;;;;;7.22;3.28;;;11.90;99.90;;;;;;6213998;23;20025;-88
2022/12/31 01:23:31;;;;;;;9.88;4.20;;;11.90;99.90;;;;;;6212926;23;20016;-89
2022/12/31 01:26:00;;;;;;;8.60;3.83;;;11.90;99.90;;;;;;6215838;23;20015;-88
2022/12/31 01:28:26;;;;;;;8.80;3.40;;;11.90;99.90;;;;;;6215589;23;20020;-88
2022/12/31 01:30:51;;;;;;;10.65;3.45;;;11.90;99.90;;;;;;6212756;23;20012;-89
2022/12/31 01:33:17;;;;;;;10.35;3.50;;;11.90;99.90;;;;;;6213202;23;20100;-88
2022/12/31 01:35:43;;;;;;;10.75;4.00;;;11.90;99.90;;;;;;6213864;23;20020;-88
2022/12/31 01:38:08;;;;;;;10.27;4.20;;;11.90;99.90;;;;;;6212677;23;20460;-88
2022/12/31 01:40:38;;;;;;;8.60;4.22;;;11.90;99.90;;;;;;6213481;23;20024;-88
2022/12/31 01:43:20;;;;;;;11.13;4.75;;;11.90;99.90;;;;;;6213930;23;20163;-88
2022/12/31 01:45:49;;;;;;;10.30;4.35;;;11.90;99.90;;;;;;6212528;23;20122;-88
2022/12/31 01:48:20;;;;;;;9.38;4.35;;;11.90;99.90;;;;;;6215408;23;20017;-88
2022/12/31 01:50:47;;;;;;;9.75;3.95;;;11.90;99.90;;;;;;6215098;23;20019;-88
2022/12/31 01:53:14;;;;;;;8.85;3.97;;;11.90;99.90;;;;;;6212301;23;20067;-88
2022/12/31 01:55:45;;;;;;;7.68;3.83;;;11.90;99.90;;;;;;6213440;23;20092;-88
2022/12/31 01:58:16;;;;;;;8.20;3.60;;;11.90;99.90;;;;;;6214354;23;20020;-88
2022/12/31 02:00:43;;;;;;;8.27;3.53;;;11.90;99.90;;;;;;6215632;23;20020;-88
2022/12/31 02:03:09;;;;;;;7.97;3.20;;;11.80;99.90;;;;;;6213014;23;20050;-88
2022/12/31 02:05:53;;;;;;;6.88;3.13;;;11.90;99.90;;;;;;6212903;23;20012;-88
2022/12/31 02:08:19;;;;;;;11.10;3.30;;;11.90;99.90;;;;;;6213427;23;20028;-88
2022/12/31 02:10:45;;;;;;;8.38;2.85;;;11.90;99.90;;;;;;6215076;23;20013;-88
2022/12/31 02:13:11;;;;;;;8.65;2.92;;;11.90;99.90;;;;;;6213945;23;20017;-88
2022/12/31 02:16:01;;;;;;;7.75;2.85;;;11.80;99.90;;;;;;6213300;23;20063;-88
2022/12/31 02:18:56;;;;;;;9.90;2.80;;;11.90;99.90;;;;;;6213557;23;20017;-88
2022/12/31 02:21:42;;;;;;;6.07;2.33;;;11.80;99.90;;;;;;6201300;23;20013;-88
2022/12/31 02:24:31;;;;;;;6.50;2.53;;;11.80;99.90;;;;;;6216406;23;20016;-88
2022/12/31 02:27:13;;;;;;;9.05;2.63;;;11.80;99.90;;;;;;6214683;23;20044;-88
2022/12/31 02:30:13;;;;;;;9.35;2.40;;;11.80;99.90;;;;;;6215225;23;20044;-88
2022/12/31 02:32:57;;;;;;;7.68;2.35;;;11.80;99.90;;;;;;6215370;23;20021;-87
2022/12/31 02:35:32;;;;;;;8.18;2.58;;;11.80;99.90;;;;;;6216184;23;20020;-88
2022/12/31 02:38:11;;;;;;;9.38;2.15;;;11.80;99.90;;;;;;6217440;23;20095;-88
2022/12/31 02:40:38;;;;;;;6.43;1.92;;;11.70;99.90;;;;;;6214439;23;20722;-88
2022/12/31 02:43:03;;;;;;;7.63;2.03;;;11.70;99.90;;;;;;6217421;23;20016;-88
2022/12/31 02:45:37;;;;;;;6.22;2.17;;;11.80;99.90;;;;;;6214785;23;20019;-88
2022/12/31 02:48:15;;;;;;;7.72;2.00;;;11.70;99.90;;;;;;6216263;23;20024;-88
2022/12/31 02:50:55;;;;;;;7.93;2.20;;;11.70;99.90;;;;;;6215694;23;20032;-88
2022/12/31 02:53:39;;;;;;;5.57;1.50;;;11.70;99.90;;;;;;6216817;23;20024;-87
2022/12/31 02:56:39;;;;;;;8.25;1.75;;;11.70;99.90;;;;;;6216312;23;20029;-87
2022/12/31 03:02:12;;;;;;;6.40;1.20;;;11.60;99.90;;;;;;6214549;23;20040;-88
2022/12/31 03:04:59;;;;;;;4.93;0.88;;;11.60;99.90;;;;;;6217409;23;20016;-87
2022/12/31 03:07:33;;;;;;;3.92;1.10;;;11.60;99.90;;;;;;6214591;23;20028;-88
2022/12/31 03:10:00;;;;;;;5.10;1.27;;;11.60;99.90;;;;;;6216776;23;20016;-88
2022/12/31 03:12:47;;;;;;;5.47;1.20;;;11.60;99.90;;;;;;6215747;23;20066;-88
2022/12/31 03:15:31;;;;;;;4.95;1.05;;;11.50;99.90;;;;;;6215157;23;20048;-88
2022/12/31 03:18:04;;;;;;;4.82;0.80;;;11.50;99.90;;;;;;6215558;23;20078;-88
2022/12/31 03:23:24;;;;;;;3.90;0.80;;;11.50;99.90;;;;;;6213687;23;20025;-87
2022/12/31 03:25:50;;;;;;;3.22;0.85;;;11.50;99.90;;;;;;6216675;23;20013;-88
2022/12/31 03:28:21;;;;;;;5.70;1.00;;;11.50;99.90;;;;;;6217394;23;20460;-88
2022/12/31 03:30:51;;;;;;;6.43;1.10;;;11.50;99.90;;;;;;6214231;23;20035;-88
2022/12/31 03:33:17;;;;;;;4.45;0.70;;;11.50;99.90;;;;;;6215110;23;20020;-88
2022/12/31 03:35:45;;;;;;;5.72;0.90;;;11.40;99.90;;;;;;6216538;23;20017;-88
2022/12/31 03:38:10;;;;;;;5.88;0.80;;;11.40;99.90;;;;;;6215156;23;20460;-88
2022/12/31 03:40:40;;;;;;;5.88;0.90;;;11.40;99.90;;;;;;6215683;23;20017;-88
2022/12/31 03:43:06;;;;;;;6.75;0.93;;;11.40;99.90;;;;;;6216112;23;20016;-88
2022/12/31 03:45:33;;;;;;;4.43;0.93;;;11.40;99.90;;;;;;6216212;23;20341;-88
2022/12/31 03:47:59;;;;;;;4.05;1.00;;;11.40;99.90;;;;;;6215323;23;20028;-88
2022/12/31 03:50:24;;;;;;;4.40;0.80;;;11.40;99.90;;;;;;6216564;23;20326;-88
2022/12/31 03:52:50;;;;;;;7.00;1.23;;;11.40;99.90;;;;;;6213958;23;20024;-88
2022/12/31 03:55:16;;;;;;;4.55;0.82;;;11.40;99.90;;;;;;6215487;23;20012;-88
2022/12/31 03:57:42;;;;;;;5.97;0.98;;;11.40;99.90;;;;;;6215095;23;20468;-87
2022/12/31 04:00:12;;;;;;;6.35;0.90;;;11.30;99.90;;;;;;6217174;23;20015;-88
2022/12/31 04:02:38;;;;;;;3.67;0.90;;;11.30;99.90;;;;;;6217325;23;20062;-88
2022/12/31 04:05:04;;;;;;;6.35;1.10;;;11.40;99.90;;;;;;6214818;23;20099;-88
2022/12/31 04:07:30;;;;;;;5.40;1.08;;;11.40;99.90;;;;;;6214466;23;20349;-88
2022/12/31 04:09:56;;;;;;;4.55;1.13;;;11.30;99.90;;;;;;6215634;23;20017;-87
2022/12/31 04:12:22;;;;;;;7.60;1.30;;;11.30;99.90;;;;;;6213771;23;20445;-88
2022/12/31 04:14:48;;;;;;;9.65;1.60;;;11.30;99.90;;;;;;6214906;23;20024;-87
2022/12/31 04:17:13;;;;;;;7.63;1.50;;;11.30;99.90;;;;;;6215968;23;20017;-87
2022/12/31 04:19:39;;;;;;;5.63;1.73;;;11.30;99.90;;;;;;6214155;23;20013;-88
2022/12/31 04:22:05;;;;;;;7.75;2.10;;;11.30;99.90;;;;;;6214545;23;20028;-88
2022/12/31 04:24:30;;;;;;;7.70;1.90;;;11.30;99.90;;;;;;6214501;23;20016;-88
2022/12/31 04:26:56;;;;;;;4.13;1.60;;;11.30;99.90;;;;;;6213934;23;20013;-88
2022/12/31 04:29:22;;;;;;;7.57;2.30;;;11.30;99.90;;;;;;6214497;23;20009;-88
2022/12/31 04:31:48;;;;;;;8.23;2.20;;;11.30;99.90;;;;;;6214423;23;20016;-87
2022/12/31 04:34:13;;;;;;;9.15;2.20;;;11.30;99.90;;;;;;6212999;23;20015;-87
2022/12/31 04:36:39;;;;;;;6.32;1.80;;;11.30;99.90;;;;;;6214693;23;20103;-88
2022/12/31 04:39:07;;;;;;;5.38;2.05;;;11.30;99.90;;;;;;6216477;23;20024;-87
2022/12/31 04:41:32;;;;;;;5.78;1.92;;;11.30;99.90;;;;;;6215490;23;20048;-88
2022/12/31 04:43:59;;;;;;;6.07;2.10;;;11.30;99.90;;;;;;6216522;23;20021;-88
2022/12/31 04:46:33;;;;;;;9.98;2.78;;;11.30;99.90;;;;;;6213943;23;20051;-88
2022/12/31 04:49:01;;;;;;;8.15;2.60;;;11.30;99.90;;;;;;6215582;23;20377;-88
2022/12/31 04:54:02;;;;;;;9.20;2.53;;;11.30;99.90;;;;;;6251650;22;20031;-87
2022/12/31 04:56:28;;;;;;;8.68;2.53;;;11.30;99.90;;;;;;6218766;23;20027;-88
2022/12/31 04:58:54;;;;;;;7.70;2.30;;;11.30;99.90;;;;;;6219346;23;20004;-88
2022/12/31 05:01:20;;;;;;;9.90;2.20;;;11.40;99.90;;;;;;6217353;23;20020;-87
2022/12/31 05:03:47;;;;;;;8.40;2.58;;;11.30;99.90;;;;;;6246283;23;20383;-88
2022/12/31 05:06:19;;;;;;;8.80;2.55;;;11.30;99.90;;;;;;6244332;23;20047;-87
2022/12/31 05:08:45;;;;;;;10.35;2.55;;;11.40;99.90;;;;;;6244427;23;20074;-88
2022/12/31 05:11:11;;;;;;;9.85;2.30;;;11.40;99.90;;;;;;6218755;23;20428;-88
2022/12/31 05:13:37;;;;;;;6.88;2.50;;;11.40;99.90;;;;;;6246005;23;20029;-87
2022/12/31 05:16:03;;;;;;;8.00;2.40;;;11.30;99.90;;;;;;6217894;23;20460;-88
2022/12/31 05:18:29;;;;;;;8.20;2.13;;;11.30;99.90;;;;;;6245441;23;20091;-90
2022/12/31 05:20:55;;;;;;;9.10;2.50;;;11.40;99.90;;;;;;6246532;23;20023;-87
2022/12/31 05:23:21;;;;;;;6.93;2.70;;;11.40;99.90;;;;;;6217602;23;20016;-88
2022/12/31 05:25:47;;;;;;;8.27;2.50;;;11.30;99.90;;;;;;6219256;23;20024;-88
2022/12/31 05:28:13;;;;;;;7.47;2.40;;;11.40;99.90;;;;;;6246089;23;20023;-88
2022/12/31 05:30:40;;;;;;;10.05;2.55;;;11.40;99.90;;;;;;6245052;23;20096;-87
2022/12/31 05:33:05;;;;;;;8.43;2.70;;;11.40;99.90;;;;;;6245497;23;20012;-89
2022/12/31 05:35:31;;;;;;;7.43;2.65;;;11.40;99.90;;;;;;6219003;23;20403;-88
2022/12/31 05:37:59;;;;;;;7.43;2.90;;;11.40;99.90;;;;;;6217922;23;20348;-88
2022/12/31 05:40:24;;;;;;;7.47;3.30;;;11.40;99.90;;;;;;6246064;23;20027;-88
2022/12/31 05:42:50;;;;;;;8.27;3.25;;;11.30;99.90;;;;;;6219196;23;20023;-88
2022/12/31 05:45:17;;;;;;;9.00;4.30;;;11.40;99.90;;;;;;6244710;23;20796;-88
2022/12/31 05:47:43;;;;;;;10.63;3.95;;;11.40;99.90;;;;;;6246152;23;20069;-88
2022/12/31 05:50:10;;;;;;;11.20;4.50;;;11.40;99.90;;;;;;6218423;23;20384;-87
2022/12/31 05:52:36;;;;;;;9.52;4.05;;;11.40;99.90;;;;;;6245841;22;20016;-87
2022/12/31 05:55:02;;;;;;;9.02;4.07;;;11.40;99.90;;;;;;6276520;22;20020;-88
2022/12/31 05:57:28;;;;;;;8.05;4.00;;;11.40;99.90;;;;;;6247965;22;20102;-87
2022/12/31 05:59:53;;;;;;;7.75;4.00;;;11.40;99.90;;;;;;6276923;22;20448;-88
2022/12/31 06:02:20;;;;;;;9.82;5.03;;;11.40;99.90;;;;;;6276219;22;20023;-88
2022/12/31 06:04:46;;;;;;;10.05;5.13;;;11.40;99.90;;;;;;6248598;22;20444;-88
2022/12/31 06:07:11;;;;;;;6.90;3.63;;;11.40;99.90;;;;;;6276578;22;20007;-88
2022/12/31 06:09:37;;;;;;;8.85;3.67;;;11.40;99.90;;;;;;6276840;22;20019;-88
2022/12/31 06:12:03;;;;;;;6.80;3.15;;;11.40;99.90;;;;;;6275222;22;20055;-88
2022/12/31 06:14:28;;;;;;;6.00;3.42;;;11.30;99.90;;;;;;6276571;22;20012;-87
2022/12/31 06:16:54;;;;;;;6.65;2.97;;;11.40;99.90;;;;;;6276574;22;20459;-87
2022/12/31 06:19:20;;;;;;;8.43;2.97;;;11.40;99.90;;;;;;6275422;22;20016;-88
2022/12/31 06:21:45;;;;;;;7.32;3.00;;;11.40;99.90;;;;;;6276292;22;20324;-87
2022/12/31 06:24:11;;;;;;;6.18;2.20;;;11.40;99.90;;;;;;6249073;22;20016;-87
2022/12/31 06:26:36;;;;;;;6.75;2.20;;;11.40;99.90;;;;;;6248680;22;20073;-87
2022/12/31 06:29:02;;;;;;;4.22;1.90;;;11.40;99.90;;;;;;6248990;22;20018;-87
2022/12/31 06:31:28;;;;;;;4.07;1.50;;;11.40;99.90;;;;;;6249354;22;20428;-87
2022/12/31 06:33:54;;;;;;;4.40;1.30;;;11.30;99.90;;;;;;6275836;22;20008;-87
2022/12/31 06:36:20;;;;;;;6.15;1.40;;;11.40;99.90;;;;;;6248799;22;20023;-87
2022/12/31 06:38:46;;;;;;;4.22;1.55;;;11.30;99.90;;;;;;6249277;22;20046;-87
2022/12/31 06:41:15;;;;;;;5.25;1.45;;;11.30;99.90;;;;;;6247902;22;20012;-88
2022/12/31 06:43:41;;;;;;;5.03;1.30;;;11.30;99.90;;;;;;6249239;22;20015;-88
2022/12/31 06:46:09;;;;;;;5.00;1.50;;;11.30;99.90;;;;;;6248839;22;20018;-87
2022/12/31 06:48:36;;;;;;;3.83;1.08;;;11.30;99.90;;;;;;6248158;22;20012;-88
2022/12/31 06:51:10;;;;;;;4.55;1.30;;;11.30;99.90;;;;;;6249324;22;20023;-88
2022/12/31 06:53:36;;;;;;;2.95;1.10;;;11.20;99.90;;;;;;6248045;22;20012;-87
2022/12/31 06:56:14;;;;;;;3.20;1.00;;;11.20;99.90;;;;;;6249158;22;20019;-87
2022/12/31 06:58:40;;;;;;;3.58;1.00;;;11.20;99.90;;;;;;6276503;22;20091;-88
2022/12/31 07:01:30;;;;;;;4.03;1.13;;;11.20;99.90;;;;;;6275644;22;20015;-88
2022/12/31 07:04:14;;;;;;;2.47;1.00;;;11.20;99.90;;;;;;6249068;22;20467;-87
2022/12/31 07:06:43;;;;;;;;;;;11.20;99.90;;;;;;6276725;22;20031;-87
2022/12/31 07:09:23;;;;;;;3.08;1.30;;;11.20;99.90;;;;;;6247938;22;19919;-87
2022/12/31 07:12:01;;;;;;;2.95;0.90;;;11.20;99.90;;;;;;6278112;22;20482;-87
2022/12/31 07:14:45;;;;;;;3.13;1.00;;;11.20;99.90;;;;;;6250235;22;20019;-87
2022/12/31 07:17:38;;;;;;;3.10;0.90;;;11.20;99.90;;;;;;6250685;22;20015;-88
2022/12/31 07:20:11;;;;;;;2.65;0.93;;;11.20;99.90;;;;;;6250492;22;20035;-88
2022/12/31 07:22:37;;;;;;;2.90;1.10;;;11.20;99.90;;;;;;6249883;22;20452;-89
2022/12/31 07:25:05;;;;;;;2.22;0.90;;;11.20;99.90;;;;;;6249860;22;20019;-87
2022/12/31 07:27:40;;;;;;;1.98;1.05;;;11.20;99.90;;;;;;6275546;22;20020;-87
2022/12/31 07:30:10;;;;;;;3.17;1.23;;;11.20;99.90;;;;;;6276548;22;20023;-88
2022/12/31 07:33:14;;;;;;;3.85;1.17;;;11.20;99.90;;;;;;6277706;22;20121;-87
2022/12/31 07:36:01;;;;;;;2.45;1.38;;;11.20;99.90;;;;;;6278156;22;20015;-89
2022/12/31 07:38:46;;;;;;;7.43;5.38;;;11.20;99.90;;;;;;6277590;22;20020;-87
2022/12/31 07:41:37;;;;;;;5.43;3.20;;;11.20;99.90;;;;;;6250556;22;20008;-87
2022/12/31 07:44:20;;;;;;;3.25;1.45;;;11.20;99.90;;;;;;6247546;22;20022;-87
2022/12/31 07:47:00;;;;;;;2.10;1.20;;;11.20;99.90;;;;;;6276804;22;20014;-87
2022/12/31 07:49:27;;;;;;;2.38;1.23;;;11.20;99.90;;;;;;6250259;22;20443;-88
2022/12/31 07:51:54;;;;;;;2.65;1.45;;;11.20;99.90;;;;;;6249781;22;20043;-88
2022/12/31 07:54:20;;;;;;;2.33;1.50;;;11.20;99.90;;;;;;6249878;22;20407;-87
2022/12/31 07:56:46;;;;;;;2.78;1.52;;;11.20;99.90;;;;;;6250400;22;20020;-87
2022/12/31 07:59:30;;;;;;;2.30;1.05;;;11.20;99.90;;;;;;6248787;22;20023;-89
2022/12/31 08:02:19;;;;;;;1.58;1.00;;;11.20;99.90;;;;;;6277075;22;20145;-87
2022/12/31 08:05:03;;;;;;;4.30;1.08;;;11.20;99.90;;;;;;6248312;22;20318;-87
2022/12/31 08:07:46;;;;;;;2.63;1.30;;;11.20;99.90;;;;;;6250089;22;20019;-87
2022/12/31 08:10:46;;;;;;;2.22;1.27;;;11.30;99.90;;;;;;6249530;22;20008;-86
2022/12/31 08:13:16;;;;;;;2.35;1.25;;;11.30;99.90;;;;;;6276358;22;20023;-86
2022/12/31 08:15:42;;;;;;;3.58;1.70;;;11.30;99.90;;;;;;6249993;22;20478;-85
2022/12/31 08:18:08;;;;;;;2.90;1.60;;;11.30;99.90;;;;;;6275241;22;20020;-86
2022/12/31 08:20:44;;;;;;;3.50;1.70;;;11.30;99.90;;;;;;6249458;22;20012;-87
2022/12/31 08:23:27;;;;;;;3.30;1.80;;;11.30;99.90;;;;;;6250118;22;20019;-87
2022/12/31 08:26:01;;;;;;;3.47;1.98;;;11.30;99.90;;;;;;6249282;22;20061;-86
2022/12/31 08:29:10;;;;;;;3.58;2.30;;;11.40;99.90;;;;;;6277024;22;20016;-86
2022/12/31 08:31:46;;;;;;;3.00;1.88;;;11.30;99.90;;;;;;6249921;22;20016;-85
2022/12/31 08:34:50;;;;;;;2.92;1.83;;;11.40;99.90;;;;;;6275851;22;20016;-86
2022/12/31 08:37:35;;;;;;;3.63;1.75;;;11.40;99.90;;;;;;6245914;22;20012;-86
2022/12/31 08:40:33;;;;;;;4.38;2.38;;;11.40;99.90;;;;;;6248456;22;20023;-86
2022/12/31 08:43:22;;;;;;;4.50;2.80;;;11.40;99.90;;;;;;6277097;22;20030;-86
2022/12/31 08:45:55;;;;;;;5.30;2.65;;;11.40;99.90;;;;;;6277238;22;20012;-85
2022/12/31 08:48:39;;;;;;;8.00;5.15;;;11.50;99.90;;;;;;6243185;22;20022;-86
2022/12/31 08:52:02;;;;;;;;;;;;;;;;;;;;;
2022/12/31 09:19:35;;;;;;;;;;;;;;;;;;;;;
2022/12/31 09:51:06;;;;;;;3.45;1.33;;;12.20;99.90;;;;;;5133432;27;20112;-83
2022/12/31 09:54:16;;;;;;;3.45;1.15;;;12.30;99.90;;;;;;5108478;28;20123;-83
2022/12/31 09:56:46;;;;;;;4.25;1.92;;;12.30;99.90;;;;;;5079329;28;20064;-84
2022/12/31 09:59:38;;;;;;;3.45;1.17;;;12.40;99.90;;;;;;5129442;28;20127;-86
2022/12/31 10:02:35;;;;;;;4.40;0.90;;;12.40;99.90;;;;;;5118393;28;20535;-86
2022/12/31 10:05:22;;;;;;;3.50;0.95;;;12.50;99.90;;;;;;5099487;28;20502;-86
2022/12/31 10:08:35;;;;;;;4.03;0.82;;;12.50;99.90;;;;;;5093901;28;20054;-86
2022/12/31 10:11:10;;;;;;;3.10;0.90;;;12.50;99.90;;;;;;5106557;27;20561;-87
2022/12/31 10:14:26;;;;;;;3.88;1.10;;;12.60;99.90;;;;;;5120951;22;20408;-84
2022/12/31 10:16:52;;;;;;;8.77;4.07;;;12.60;99.90;;;;;;5057309;28;20520;-86
2022/12/31 10:19:57;;;;;;;7.97;2.70;;;12.70;99.90;;;;;;5050290;28;20076;-85
2022/12/31 10:22:31;;;;;;;3.67;1.40;;;12.70;99.90;;;;;;5067057;28;20408;-83
2022/12/31 10:25:23;;;;;;;6.00;1.75;;;12.70;99.90;;;;;;5055043;28;20204;-84
2022/12/31 10:27:59;;;;;;;6.63;1.30;;;12.70;99.90;;;;;;5054544;28;20067;-84
2022/12/31 10:30:33;;;;;;;4.57;1.73;;;12.70;99.90;;;;;;5067766;28;20040;-84
2022/12/31 10:33:17;;;;;;;8.10;3.05;;;12.80;99.90;;;;;;5067028;28;20028;-86
2022/12/31 10:36:06;;;;;;;9.73;4.50;;;12.80;99.90;;;;;;5059126;28;20090;-85
2022/12/31 10:38:55;;;;;;;8.38;2.55;;;12.80;99.90;;;;;;5064443;28;20087;-85
2022/12/31 10:41:49;;;;;;;9.20;3.78;;;12.90;99.90;;;;;;5063627;28;20077;-85
2022/12/31 10:44:27;;;;;;;7.30;2.20;;;12.90;99.90;;;;;;5052331;28;20044;-88
2022/12/31 10:47:22;;;;;;;6.85;1.90;;;13.00;99.90;;;;;;5066856;28;20040;-86
2022/12/31 10:50:17;;;;;;;7.40;1.65;;;13.00;99.90;;;;;;5058720;28;20053;-88
2022/12/31 10:53:10;;;;;;;7.20;1.95;;;13.00;99.90;;;;;;5045434;28;20120;-85
2022/12/31 10:56:32;;;;;;;7.53;2.08;;;13.10;99.90;;;;;;5048973;28;20481;-86
2022/12/31 10:59:43;;;;;;;10.88;1.48;;;13.10;99.90;;;;;;5021168;28;20049;-86
2022/12/31 11:02:41;;;;;;;8.73;1.40;;;13.10;99.90;;;;;;5051257;28;20047;-87
2022/12/31 11:05:36;;;;;;;10.77;4.28;;;13.10;99.90;;;;;;5040069;28;20056;-85
2022/12/31 11:08:33;;;;;;;11.60;2.00;;;13.10;99.90;;;;;;5047779;28;20045;-86
2022/12/31 11:11:16;;;;;;;18.00;6.93;;;13.20;99.90;;;;;;5040953;28;20040;-85
2022/12/31 11:13:57;;;;;;;8.20;3.03;;;13.20;99.90;;;;;;5047219;28;20084;-84
2022/12/31 11:16:43;;;;;;;8.90;1.90;;;13.20;99.90;;;;;;5038035;28;20140;-85
2022/12/31 11:23:25;;;;;;;7.63;1.80;;;13.30;99.90;;;;;;5006670;28;20116;-85
2022/12/31 11:26:18;;;;;;;4.60;1.35;;;13.30;99.90;;;;;;5006282;28;20050;-85
2022/12/31 11:28:59;;;;;;;5.82;1.50;;;13.30;99.90;;;;;;5044061;28;20053;-85
2022/12/31 11:31:49;;;;;;;7.95;1.70;;;13.30;99.90;;;;;;5054405;28;20560;-84
2022/12/31 11:34:23;;;;;;;5.60;1.50;;;13.30;99.90;;;;;;5044869;28;20055;-85
2022/12/31 11:37:26;;;;;;;8.15;2.15;;;13.30;99.90;;;;;;5042157;28;20033;-85
2022/12/31 11:40:13;;;;;;;4.85;1.42;;;13.40;99.90;;;;;;5054759;28;20045;-83
2022/12/31 11:43:11;;;;;;;5.65;1.10;;;13.40;99.90;;;;;;5046913;28;20045;-83
2022/12/31 13:46:49;;;;;;;5.32;1.60;;;13.40;99.90;;;;;;5113202;27;20420;-85
2022/12/31 13:49:22;;;;;;;7.30;2.53;;;13.60;99.90;;;;;;5108658;28;20403;-86
2022/12/31 13:52:02;;;;;;;7.65;2.45;;;13.50;99.90;;;;;;5110593;28;20123;-86
2022/12/31 13:54:53;;;;;;;6.72;1.50;;;13.50;99.90;;;;;;5108029;28;20048;-86
2022/12/31 13:57:42;;;;;;;7.15;1.90;;;13.50;99.90;;;;;;5108874;28;20071;-85
2022/12/31 14:00:42;;;;;;;6.63;2.03;;;13.50;99.90;;;;;;5109485;28;20096;-85
2022/12/31 14:03:08;;;;;;;5.93;1.95;;;13.40;99.90;;;;;;5108622;28;20553;-85
2022/12/31 14:06:02;;;;;;;5.60;2.00;;;13.40;99.90;;;;;;5109445;28;20040;-85
2022/12/31 14:08:30;;;;;;;;;;;13.40;99.90;;;;;;5110012;28;20055;-85
2022/12/31 14:11:15;;;;;;;8.15;1.60;;;13.40;99.90;;;;;;5108923;28;19963;-85
2022/12/31 14:14:22;;;;;;;6.35;1.63;;;13.40;99.90;;;;;;5110254;28;20054;-85
2022/12/31 14:17:09;;;;;;;7.20;2.50;;;13.40;99.90;;;;;;5108208;28;20062;-86
2022/12/31 14:19:55;;;;;;;5.35;1.20;;;13.40;99.90;;;;;;5110309;28;20042;-86
2022/12/31 14:22:27;;;;;;;4.70;1.80;;;13.50;99.90;;;;;;5108769;28;20054;-86
2022/12/31 14:24:55;;;;;;;4.60;1.80;;;13.50;99.90;;;;;;5107980;28;20093;-85
2022/12/31 14:27:40;;;;;;;4.97;1.70;;;13.50;99.90;;;;;;5108820;28;20075;-86
2022/12/31 14:30:21;;;;;;;5.82;1.52;;;13.60;99.90;;;;;;5108489;28;20441;-87
2022/12/31 14:33:17;;;;;;;6.00;2.25;;;13.50;99.90;;;;;;5107779;28;20128;-85
2022/12/31 14:35:46;;;;;;;6.68;2.75;;;13.60;99.90;;;;;;5110115;28;20044;-86
2022/12/31 14:38:36;;;;;;;7.75;3.30;;;13.50;99.90;;;;;;5107958;28;20377;-86
2022/12/31 14:41:28;;;;;;;7.45;4.38;;;13.60;99.90;;;;;;5110057;28;20040;-86
2022/12/31 14:44:11;;;;;;;8.65;4.95;;;13.60;99.90;;;;;;5077801;28;20457;-86
2022/12/31 14:47:06;;;;;;;6.75;2.78;;;13.60;99.90;;;;;;5099374;28;20495;-85
2022/12/31 14:49:46;;;;;;;7.65;2.22;;;13.60;99.90;;;;;;5094976;28;20056;-85
2022/12/31 14:52:15;;;;;;;7.57;2.40;;;13.60;99.90;;;;;;5095436;28;20083;-85
2022/12/31 14:54:41;;;;;;;5.15;2.42;;;13.60;99.90;;;;;;5095878;28;20099;-86
2022/12/31 14:57:16;;;;;;;5.18;2.08;;;13.80;99.90;;;;;;5095785;28;20083;-85
2022/12/31 14:59:55;;;;;;;8.73;3.33;;;13.70;99.90;;;;;;5093917;28;20468;-85
2022/12/31 15:02:27;;;;;;;6.72;2.50;;;13.70;99.90;;;;;;5095675;28;20036;-86
2022/12/31 15:05:08;;;;;;;7.88;2.33;;;13.70;99.90;;;;;;5096197;28;20036;-86
2022/12/31 15:07:48;;;;;;;8.00;2.90;;;13.70;99.90;;;;;;5095151;28;20491;-86
2022/12/31 15:10:18;;;;;;;7.45;2.08;;;13.80;99.90;;;;;;5094850;28;20044;-88
2022/12/31 15:13:05;;;;;;;10.25;2.30;;;13.80;99.90;;;;;;5094770;28;20076;-86
2022/12/31 15:16:21;;;;;;;;;;;;;;;;;;;;;
2022/12/31 15:19:23;;;;;;;6.85;2.60;;;13.80;99.90;;;;;;5090134;28;20056;-86
2022/12/31 15:22:13;;;;;;;;;;;;;;;;;;;;;
2022/12/31 15:24:46;;;;;;;10.43;4.35;;;13.80;99.90;;;;;;5093728;28;20052;-85
2022/12/31 15:27:33;;;;;;;8.38;2.80;;;13.90;99.90;;;;;;5093307;28;20078;-86
2022/12/31 15:30:38;;;;;;;8.40;3.20;;;13.90;99.90;;;;;;5094368;28;20052;-85
2022/12/31 15:33:29;;;;;;;13.90;4.70;;;13.80;99.90;;;;;;5094046;28;20040;-85
2022/12/31 15:35:56;;;;;;;11.50;6.55;;;13.80;99.90;;;;;;5094415;28;20611;-86
2022/12/31 15:38:47;;;;;;;10.23;5.10;;;13.90;99.90;;;;;;5093811;28;20036;-86
2022/12/31 15:41:35;;;;;;;11.25;5.85;;;13.90;99.90;;;;;;5092971;28;20388;-90
2022/12/31 15:44:13;;;;;;;13.27;8.73;;;13.80;99.90;;;;;;5094394;28;20032;-90
2022/12/31 15:46:41;;;;;;;12.38;6.70;;;13.90;99.90;;;;;;5092401;28;20510;-86
2022/12/31 15:49:21;;;;;;;9.43;5.10;;;13.90;99.90;;;;;;5088866;28;20369;-86
2022/12/31 15:52:05;;;;;;;8.43;4.20;;;13.90;99.90;;;;;;5094803;28;20052;-86
2022/12/31 15:54:40;;;;;;;;;;;13.90;99.90;;;;;;5092378;28;20051;-88
2022/12/31 15:57:18;;;;;;;5.85;2.50;;;13.80;99.90;;;;;;5092337;28;19973;-87
2022/12/31 16:00:28;;;;;;;9.32;4.72;;;13.80;99.90;;;;;;5101456;23;20060;-95
2022/12/31 16:02:56;;;;;;;18.48;10.73;;;13.80;99.90;;;;;;5054862;28;20048;-94
2022/12/31 16:05:26;;;;;;;15.40;9.23;;;13.80;99.90;;;;;;5058262;28;20047;-96
2022/12/31 16:07:57;;;;;;;10.30;5.70;;;13.90;99.90;;;;;;5058387;28;20041;-96
2022/12/31 16:10:29;;;;;;;9.77;5.70;;;13.80;99.90;;;;;;5064876;28;20076;-96
2022/12/31 16:13:07;;;;;;;9.77;4.80;;;13.90;99.90;;;;;;5065604;28;20057;-96
2022/12/31 16:15:33;;;;;;;8.13;3.50;;;13.80;99.90;;;;;;5070752;28;20052;-96
2022/12/31 16:18:18;;;;;;;11.30;5.10;;;13.90;99.90;;;;;;5052637;28;20061;-88
2022/12/31 16:20:47;;;;;;;11.32;5.53;;;13.80;99.90;;;;;;5047920;28;20055;-87
2022/12/31 16:23:24;;;;;;;9.50;3.45;;;13.80;99.90;;;;;;5051589;28;20033;-88
2022/12/31 16:25:59;;;;;;;10.95;5.57;;;13.80;99.90;;;;;;5042292;28;20254;-88
2022/12/31 16:28:31;;;;;;;10.98;4.50;;;13.80;99.90;;;;;;5053351;28;20516;-88
2022/12/31 16:31:12;;;;;;;11.57;5.20;;;13.80;99.90;;;;;;5050660;28;20122;-87
2022/12/31 16:33:50;;;;;;;11.68;4.15;;;13.80;99.90;;;;;;5050900;28;20045;-89
2022/12/31 16:36:25;;;;;;;11.40;4.20;;;13.80;99.90;;;;;;5051245;28;20108;-89
2022/12/31 16:39:33;;;;;;;12.68;5.22;;;13.80;99.90;;;;;;5051789;28;20102;-92
2022/12/31 16:42:24;;;;;;;15.77;6.63;;;13.70;99.90;;;;;;5052716;28;20053;-89
2022/12/31 16:45:18;;;;;;;14.45;7.30;;;13.70;99.90;;;;;;5051272;28;20136;-91
2022/12/31 16:47:48;;;;;;;16.63;6.93;;;13.80;99.90;;;;;;5053144;28;20037;-90